Time;durP1;ratioP1;P1;durP2;ratioP2;P2;SDS_P1;SDS_P2;PMS_P1;PMS_P2;Temp;Humidity;BMP_temperature;BMP_pressure;BME280_temperature;BME280_humidity;BME280_pressure;Samples;Min_cycle;Max_cycle;Signal;HPM_P1;HPM_P2
2024/01/25 00:01:16;;;;;;;8.50;2.22;;;8.00;99.90;;;;;;5012352;28;20010;-79
2024/01/25 00:03:41;;;;;;;20.25;2.83;;;7.90;99.90;;;;;;5014858;28;20033;-79
2024/01/25 00:06:07;;;;;;;13.98;2.08;;;7.90;99.90;;;;;;5012029;28;20090;-78
2024/01/25 00:08:34;;;;;;;12.20;1.85;;;7.90;99.90;;;;;;5010167;28;20084;-80
2024/01/25 00:11:01;;;;;;;10.55;2.45;;;7.90;99.90;;;;;;5027537;28;20017;-79
2024/01/25 00:13:26;;;;;;;15.13;2.13;;;7.90;99.90;;;;;;5011953;28;20405;-79
2024/01/25 00:15:52;;;;;;;5.90;1.80;;;8.00;99.90;;;;;;5012808;28;20026;-79
2024/01/25 00:18:17;;;;;;;13.63;2.55;;;8.00;99.90;;;;;;5014495;28;20021;-79
2024/01/25 00:20:43;;;;;;;17.85;1.95;;;7.90;99.90;;;;;;5013775;28;20049;-78
2024/01/25 00:23:08;;;;;;;11.88;2.08;;;7.90;99.90;;;;;;5012302;28;20021;-79
2024/01/25 00:25:34;;;;;;;17.08;1.73;;;8.00;99.90;;;;;;5011531;28;20037;-79
2024/01/25 00:28:00;;;;;;;7.88;1.83;;;8.00;99.90;;;;;;5018201;28;20426;-79
2024/01/25 00:30:25;;;;;;;13.85;1.70;;;7.90;99.90;;;;;;5029507;28;20128;-80
2024/01/25 00:32:51;;;;;;;11.45;1.77;;;7.90;99.90;;;;;;5011241;28;20028;-79
2024/01/25 00:35:16;;;;;;;7.15;1.83;;;8.00;99.90;;;;;;5025559;28;20402;-80
2024/01/25 00:37:42;;;;;;;8.82;2.20;;;7.90;99.90;;;;;;5009477;28;20436;-79
2024/01/25 00:40:09;;;;;;;7.15;2.03;;;8.00;99.90;;;;;;5034579;28;20403;-79
2024/01/25 00:42:43;;;;;;;10.50;1.42;;;7.90;99.90;;;;;;5015666;28;20124;-78
2024/01/25 00:45:09;;;;;;;6.95;1.27;;;7.90;99.90;;;;;;5029332;28;20071;-80
2024/01/25 00:47:35;;;;;;;14.60;1.95;;;8.00;99.90;;;;;;5015365;28;20021;-79
2024/01/25 00:50:01;;;;;;;10.38;2.55;;;8.00;99.90;;;;;;5029599;28;20083;-80
2024/01/25 00:52:27;;;;;;;4.82;1.73;;;8.00;99.90;;;;;;5015608;28;20021;-79
2024/01/25 00:54:53;;;;;;;8.55;1.98;;;8.00;99.90;;;;;;5015522;28;20024;-79
2024/01/25 00:57:18;;;;;;;14.25;1.95;;;8.00;99.90;;;;;;5034017;28;20033;-80
2024/01/25 00:59:44;;;;;;;8.90;1.67;;;8.00;99.90;;;;;;5030054;28;20029;-79
2024/01/25 01:02:12;;;;;;;17.20;2.30;;;8.00;99.90;;;;;;5013829;28;20025;-82
2024/01/25 01:04:38;;;;;;;10.00;1.52;;;8.00;99.90;;;;;;5032915;28;20029;-80
2024/01/25 01:07:04;;;;;;;13.25;2.50;;;8.00;99.90;;;;;;5035333;28;20025;-80
2024/01/25 01:09:30;;;;;;;10.75;1.88;;;8.00;99.90;;;;;;5014913;28;20032;-80
2024/01/25 01:11:55;;;;;;;4.53;1.45;;;8.00;99.90;;;;;;5013385;28;20489;-81
2024/01/25 01:14:21;;;;;;;14.15;2.00;;;8.00;99.90;;;;;;5027736;28;20546;-79
2024/01/25 01:16:46;;;;;;;11.52;2.13;;;8.00;99.90;;;;;;5018245;28;20025;-79
2024/01/25 01:19:12;;;;;;;10.35;2.15;;;8.00;99.90;;;;;;5028452;28;20025;-79
2024/01/25 01:21:38;;;;;;;11.25;1.95;;;8.00;99.90;;;;;;5034387;28;20025;-79
2024/01/25 01:24:04;;;;;;;15.90;1.92;;;8.00;99.90;;;;;;5010487;28;20018;-78
2024/01/25 01:26:30;;;;;;;13.88;1.77;;;8.00;99.90;;;;;;5012029;28;20399;-79
2024/01/25 01:28:55;;;;;;;12.93;2.03;;;8.00;99.90;;;;;;5035538;28;20029;-79
2024/01/25 01:31:21;;;;;;;7.85;2.33;;;8.00;99.90;;;;;;5035046;28;20033;-79
2024/01/25 01:33:47;;;;;;;12.57;1.63;;;8.00;99.90;;;;;;5022831;28;20032;-79
2024/01/25 01:36:13;;;;;;;10.43;2.50;;;8.00;99.90;;;;;;5014068;28;20048;-79
2024/01/25 01:38:38;;;;;;;9.52;1.67;;;8.00;99.90;;;;;;5015002;28;20483;-81
2024/01/25 01:41:04;;;;;;;10.63;2.10;;;8.00;99.90;;;;;;5034377;28;20025;-79
2024/01/25 01:43:29;;;;;;;6.63;1.60;;;8.00;99.90;;;;;;5032465;28;20049;-79
2024/01/25 01:46:03;;;;;;;7.28;1.45;;;8.00;99.90;;;;;;5014092;28;20087;-78
2024/01/25 01:48:28;;;;;;;17.80;1.58;;;8.00;99.90;;;;;;5030821;28;20589;-79
2024/01/25 01:50:54;;;;;;;13.20;1.77;;;8.00;99.90;;;;;;5029623;28;20121;-79
2024/01/25 01:53:19;;;;;;;4.30;1.05;;;8.00;99.90;;;;;;5014566;28;20561;-79
2024/01/25 01:55:45;;;;;;;11.38;1.73;;;8.00;99.90;;;;;;5013913;28;20112;-81
2024/01/25 01:58:11;;;;;;;17.48;2.10;;;8.00;99.90;;;;;;5014428;28;20022;-80
2024/01/25 02:00:38;;;;;;;5.80;1.90;;;8.00;99.90;;;;;;5015047;28;20044;-80
2024/01/25 02:03:04;;;;;;;13.13;2.05;;;8.00;99.90;;;;;;5008907;28;20018;-80
2024/01/25 02:05:29;;;;;;;6.07;1.70;;;8.00;99.90;;;;;;5030677;28;20441;-79
2024/01/25 02:07:55;;;;;;;4.00;1.77;;;8.00;99.90;;;;;;5031131;28;20021;-79
2024/01/25 02:10:21;;;;;;;7.93;1.88;;;8.00;99.90;;;;;;5014393;28;20491;-79
2024/01/25 02:12:46;;;;;;;4.57;1.30;;;8.00;99.90;;;;;;5014931;28;20025;-79
2024/01/25 02:15:12;;;;;;;5.35;1.23;;;8.00;99.90;;;;;;5028797;28;20082;-79
2024/01/25 02:17:38;;;;;;;6.80;1.38;;;8.00;99.90;;;;;;5014102;28;20161;-80
2024/01/25 02:20:04;;;;;;;7.57;1.33;;;8.00;99.90;;;;;;5031720;28;20053;-78
2024/01/25 02:22:30;;;;;;;6.53;1.60;;;8.00;99.90;;;;;;5014079;28;20332;-79
2024/01/25 02:24:55;;;;;;;1.58;0.85;;;8.00;99.90;;;;;;5031290;28;20504;-79
2024/01/25 02:27:21;;;;;;;9.23;1.50;;;8.00;99.90;;;;;;5028609;28;20025;-79
2024/01/25 02:29:46;;;;;;;4.43;1.55;;;8.00;99.90;;;;;;5031418;28;20064;-81
2024/01/25 02:32:12;;;;;;;10.65;1.52;;;8.00;99.90;;;;;;5031778;28;20080;-79
2024/01/25 02:34:37;;;;;;;13.55;1.60;;;8.00;99.90;;;;;;5031655;28;20033;-80
2024/01/25 02:37:03;;;;;;;4.03;1.35;;;8.00;99.90;;;;;;5013411;28;20037;-80
2024/01/25 02:39:29;;;;;;;4.13;0.98;;;8.00;99.90;;;;;;5028983;28;20030;-79
2024/01/25 02:41:54;;;;;;;8.40;1.77;;;8.00;99.90;;;;;;5029665;28;20102;-78
2024/01/25 02:44:20;;;;;;;12.30;1.80;;;8.00;99.90;;;;;;5013643;28;20533;-79
2024/01/25 02:46:46;;;;;;;5.07;1.27;;;8.00;99.90;;;;;;5010836;28;20442;-79
2024/01/25 02:49:12;;;;;;;6.60;1.20;;;8.00;99.90;;;;;;5013595;28;20048;-80
2024/01/25 02:51:37;;;;;;;5.05;1.23;;;8.00;99.90;;;;;;5030255;28;20459;-79
2024/01/25 02:54:03;;;;;;;4.65;1.33;;;8.00;99.90;;;;;;5031635;28;20021;-79
2024/01/25 02:56:34;;;;;;;2.42;1.10;;;8.00;99.90;;;;;;5013125;28;20029;-79
2024/01/25 02:59:00;;;;;;;5.50;0.93;;;8.00;99.90;;;;;;5011583;28;20049;-80
2024/01/25 03:01:26;;;;;;;5.43;0.85;;;8.00;99.90;;;;;;5013166;28;20648;-79
2024/01/25 03:03:51;;;;;;;10.40;2.35;;;8.00;99.90;;;;;;5030056;28;20032;-79
2024/01/25 03:06:17;;;;;;;4.88;1.23;;;8.00;99.90;;;;;;5013181;28;20029;-79
2024/01/25 03:08:42;;;;;;;4.50;1.20;;;8.00;99.90;;;;;;5012785;28;20113;-79
2024/01/25 03:11:08;;;;;;;7.97;1.40;;;8.00;99.90;;;;;;5013853;28;20045;-79
2024/01/25 03:13:34;;;;;;;5.15;1.50;;;8.00;99.90;;;;;;5012908;28;20029;-78
2024/01/25 03:15:59;;;;;;;8.02;1.35;;;8.00;99.90;;;;;;5006641;28;20028;-79
2024/01/25 03:18:25;;;;;;;6.88;1.30;;;8.00;99.90;;;;;;5033330;28;20025;-79
2024/01/25 03:20:51;;;;;;;7.70;1.40;;;8.00;99.90;;;;;;5013043;28;20017;-78
2024/01/25 03:23:17;;;;;;;11.02;1.38;;;8.00;99.90;;;;;;5013092;28;20420;-80
2024/01/25 03:25:42;;;;;;;6.18;1.00;;;8.00;99.90;;;;;;5032066;28;20029;-80
2024/01/25 03:28:09;;;;;;;8.68;1.65;;;8.00;99.90;;;;;;5013328;28;20025;-79
2024/01/25 03:30:34;;;;;;;8.70;1.27;;;8.00;99.90;;;;;;5012910;28;20036;-80
2024/01/25 03:33:00;;;;;;;5.82;1.50;;;8.00;99.90;;;;;;5011592;28;20021;-79
2024/01/25 03:35:26;;;;;;;8.27;1.75;;;8.00;99.90;;;;;;5030166;28;20030;-80
2024/01/25 03:37:51;;;;;;;6.15;1.00;;;8.00;99.90;;;;;;5031492;28;20434;-79
2024/01/25 03:40:17;;;;;;;7.40;1.55;;;8.00;99.90;;;;;;5026309;28;20141;-80
2024/01/25 03:42:42;;;;;;;5.32;1.35;;;8.00;99.90;;;;;;5016407;28;20033;-79
2024/01/25 03:45:08;;;;;;;4.78;1.60;;;8.00;99.90;;;;;;5030098;28;20080;-79
2024/01/25 03:47:34;;;;;;;4.15;1.90;;;8.00;99.90;;;;;;5012589;28;20018;-83
2024/01/25 03:49:59;;;;;;;5.60;1.45;;;8.00;99.90;;;;;;5030042;28;20051;-81
2024/01/25 03:52:25;;;;;;;6.97;1.65;;;8.00;99.90;;;;;;5011890;28;20028;-79
2024/01/25 03:54:51;;;;;;;8.50;1.55;;;8.00;99.90;;;;;;5012340;28;20025;-80
2024/01/25 03:57:16;;;;;;;5.03;1.70;;;8.00;99.90;;;;;;5015077;28;20044;-82
2024/01/25 03:59:42;;;;;;;17.55;2.17;;;8.00;99.90;;;;;;5010702;28;20540;-80
2024/01/25 04:02:09;;;;;;;7.20;1.27;;;8.00;99.90;;;;;;5012565;28;20108;-80
2024/01/25 04:04:34;;;;;;;4.95;1.20;;;8.00;99.90;;;;;;5011887;28;20117;-82
2024/01/25 04:07:00;;;;;;;4.93;1.20;;;8.00;99.90;;;;;;5010377;28;20462;-79
2024/01/25 04:09:25;;;;;;;4.82;1.23;;;8.00;99.90;;;;;;5030278;28;20021;-79
2024/01/25 04:11:51;;;;;;;2.58;1.05;;;8.00;99.90;;;;;;5012220;28;20491;-80
2024/01/25 04:14:17;;;;;;;6.82;1.30;;;8.00;99.90;;;;;;5012141;28;20637;-80
2024/01/25 04:16:42;;;;;;;3.50;1.25;;;8.00;99.90;;;;;;5028802;28;20029;-78
2024/01/25 04:19:12;;;;;;;4.30;1.10;;;8.00;99.90;;;;;;5007428;28;20071;-78
2024/01/25 04:21:37;;;;;;;5.17;1.03;;;8.00;99.90;;;;;;5012307;28;20018;-80
2024/01/25 04:24:04;;;;;;;4.28;1.27;;;7.90;99.90;;;;;;5010499;28;20025;-79
2024/01/25 04:26:29;;;;;;;6.80;1.15;;;8.00;99.90;;;;;;5009304;28;20030;-79
2024/01/25 04:28:55;;;;;;;8.73;1.50;;;8.00;99.90;;;;;;5012488;28;20037;-79
2024/01/25 04:31:21;;;;;;;8.25;1.00;;;8.00;99.90;;;;;;5029032;28;20527;-79
2024/01/25 04:33:47;;;;;;;5.25;1.30;;;8.00;99.90;;;;;;5036340;28;20025;-79
2024/01/25 04:36:12;;;;;;;8.00;1.30;;;8.00;99.90;;;;;;5011436;28;20017;-79
2024/01/25 04:38:38;;;;;;;4.18;1.33;;;7.90;99.90;;;;;;5029620;28;20030;-80
2024/01/25 04:41:05;;;;;;;4.65;1.15;;;8.00;99.90;;;;;;5012425;28;20025;-79
2024/01/25 04:43:37;;;;;;;13.95;1.75;;;8.00;99.90;;;;;;5029023;28;20017;-79
2024/01/25 04:46:03;;;;;;;5.35;1.63;;;8.00;99.90;;;;;;5028131;28;20022;-78
2024/01/25 04:48:29;;;;;;;3.80;0.82;;;8.00;99.90;;;;;;5028994;28;20061;-80
2024/01/25 04:50:58;;;;;;;10.35;1.80;;;8.00;99.90;;;;;;5029376;28;20025;-79
2024/01/25 04:53:23;;;;;;;4.20;1.08;;;7.90;99.90;;;;;;5011210;28;20082;-79
2024/01/25 04:55:49;;;;;;;2.42;1.13;;;8.00;99.90;;;;;;5011378;28;20104;-78
2024/01/25 04:58:14;;;;;;;5.03;1.25;;;8.00;99.90;;;;;;5014692;28;20386;-79
2024/01/25 05:00:40;;;;;;;1.75;0.93;;;8.00;99.90;;;;;;5008972;28;20049;-79
2024/01/25 05:03:05;;;;;;;5.68;1.55;;;8.00;99.90;;;;;;5007548;28;20026;-78
2024/01/25 05:05:31;;;;;;;6.05;1.02;;;8.00;99.90;;;;;;5011306;28;20021;-79
2024/01/25 05:07:57;;;;;;;4.97;1.25;;;8.00;99.90;;;;;;5011589;28;20025;-80
2024/01/25 05:10:23;;;;;;;5.57;0.95;;;8.00;99.90;;;;;;5011778;28;20025;-79
2024/01/25 05:12:48;;;;;;;7.60;1.33;;;7.90;99.90;;;;;;5011648;28;20084;-78
2024/01/25 05:15:14;;;;;;;4.85;1.33;;;7.90;99.90;;;;;;5029159;28;20033;-79
2024/01/25 05:17:40;;;;;;;4.63;1.00;;;8.00;99.90;;;;;;5011734;28;20033;-79
2024/01/25 05:20:06;;;;;;;5.68;1.05;;;8.00;99.90;;;;;;5009621;28;20057;-79
2024/01/25 05:22:32;;;;;;;6.53;0.95;;;8.00;99.90;;;;;;5029397;28;20028;-79
2024/01/25 05:24:57;;;;;;;10.07;1.27;;;8.00;99.90;;;;;;5014214;28;20013;-79
2024/01/25 05:27:23;;;;;;;1.38;1.02;;;8.00;99.90;;;;;;5015740;28;20030;-78
2024/01/25 05:29:49;;;;;;;8.52;1.83;;;8.00;99.90;;;;;;5014791;28;20028;-79
2024/01/25 05:32:14;;;;;;;5.80;1.08;;;8.00;99.90;;;;;;5032743;28;20022;-80
2024/01/25 05:34:40;;;;;;;1.30;1.13;;;8.00;99.90;;;;;;5032097;28;20030;-79
2024/01/25 05:37:05;;;;;;;3.67;1.17;;;8.00;99.90;;;;;;5032274;28;20029;-79
2024/01/25 05:39:31;;;;;;;2.03;0.98;;;7.90;99.90;;;;;;5034682;28;20021;-79
2024/01/25 05:41:56;;;;;;;2.55;0.90;;;8.00;99.90;;;;;;5014788;28;20429;-78
2024/01/25 05:44:22;;;;;;;5.97;1.17;;;7.90;99.90;;;;;;5032523;28;20075;-80
2024/01/25 05:46:48;;;;;;;7.15;1.65;;;7.90;99.90;;;;;;5020927;28;20025;-79
2024/01/25 05:49:13;;;;;;;6.43;1.20;;;8.00;99.90;;;;;;5012935;28;20022;-79
2024/01/25 05:51:39;;;;;;;6.15;1.20;;;8.00;99.90;;;;;;5032299;28;20048;-78
2024/01/25 05:54:05;;;;;;;7.13;1.27;;;8.00;99.90;;;;;;5031258;28;20026;-79
2024/01/25 05:56:31;;;;;;;7.32;1.13;;;7.90;99.90;;;;;;5014240;28;20022;-79
2024/01/25 05:58:57;;;;;;;7.38;1.15;;;8.00;99.90;;;;;;5014414;28;20025;-79
2024/01/25 06:01:22;;;;;;;6.82;1.73;;;8.00;99.90;;;;;;5014431;28;20048;-79
2024/01/25 06:03:48;;;;;;;5.88;1.20;;;8.00;99.90;;;;;;5032076;28;20096;-78
2024/01/25 06:06:13;;;;;;;5.65;1.20;;;7.90;99.90;;;;;;5013972;28;20037;-79
2024/01/25 06:08:39;;;;;;;3.53;1.20;;;8.00;99.90;;;;;;5031971;28;20084;-78
2024/01/25 06:11:04;;;;;;;7.75;1.77;;;8.00;99.90;;;;;;5014991;28;20026;-79
2024/01/25 06:13:31;;;;;;;3.72;1.25;;;8.00;99.90;;;;;;5033980;28;20093;-79
2024/01/25 06:15:56;;;;;;;2.22;0.90;;;8.00;99.90;;;;;;5013988;28;20028;-81
2024/01/25 06:18:22;;;;;;;4.00;1.20;;;8.00;99.90;;;;;;5013852;28;20025;-80
2024/01/25 06:20:47;;;;;;;5.55;1.65;;;8.00;99.90;;;;;;5032025;28;20375;-81
2024/01/25 06:23:13;;;;;;;6.93;1.70;;;8.00;99.90;;;;;;5013904;28;20071;-79
2024/01/25 06:25:38;;;;;;;9.68;1.88;;;8.00;99.90;;;;;;5013836;28;20018;-79
2024/01/25 06:28:04;;;;;;;6.88;1.58;;;7.90;99.90;;;;;;5030326;28;20067;-78
2024/01/25 06:30:30;;;;;;;5.07;1.42;;;7.90;99.90;;;;;;5031794;28;20045;-79
2024/01/25 06:32:55;;;;;;;2.22;1.33;;;7.90;99.90;;;;;;5031000;28;20148;-79
2024/01/25 06:35:21;;;;;;;5.80;1.50;;;8.00;99.90;;;;;;5013531;28;20410;-79
2024/01/25 06:37:47;;;;;;;10.85;2.15;;;8.00;99.90;;;;;;5031103;28;20022;-79
2024/01/25 06:40:12;;;;;;;4.55;1.67;;;8.00;99.90;;;;;;5011349;28;20105;-79
2024/01/25 06:42:38;;;;;;;6.45;1.23;;;8.00;99.90;;;;;;5031428;28;20550;-79
2024/01/25 06:45:04;;;;;;;15.43;1.33;;;7.90;99.90;;;;;;5013374;28;20407;-79
2024/01/25 06:47:29;;;;;;;4.97;1.73;;;7.90;99.90;;;;;;5013117;28;20022;-80
2024/01/25 06:49:55;;;;;;;4.45;1.90;;;7.90;99.90;;;;;;5013397;28;20034;-80
2024/01/25 06:52:20;;;;;;;2.92;1.60;;;7.90;99.90;;;;;;5033586;28;20022;-79
2024/01/25 06:54:46;;;;;;;9.02;1.50;;;7.90;99.90;;;;;;5013788;28;20021;-79
2024/01/25 06:57:13;;;;;;;3.70;1.13;;;7.90;99.90;;;;;;5031228;28;20017;-79
2024/01/25 06:59:39;;;;;;;13.05;1.92;;;7.90;99.90;;;;;;5030865;28;20076;-78
2024/01/25 07:02:05;;;;;;;5.57;1.35;;;7.90;99.90;;;;;;5032893;28;20028;-79
2024/01/25 07:04:31;;;;;;;6.53;1.73;;;7.90;99.90;;;;;;5028095;28;20017;-79
2024/01/25 07:06:56;;;;;;;10.68;1.58;;;7.90;99.90;;;;;;5013218;28;20421;-81
2024/01/25 07:09:22;;;;;;;3.30;1.30;;;7.90;99.90;;;;;;5014146;28;20367;-82
2024/01/25 07:11:47;;;;;;;7.10;1.25;;;7.90;99.90;;;;;;5013129;28;20584;-80
2024/01/25 07:14:13;;;;;;;4.93;1.73;;;7.90;99.90;;;;;;5011946;28;20537;-80
2024/01/25 07:16:39;;;;;;;2.72;1.30;;;7.90;99.90;;;;;;5029690;28;20025;-81
2024/01/25 07:19:04;;;;;;;6.88;1.30;;;7.90;99.90;;;;;;5016332;28;20040;-81
2024/01/25 07:21:33;;;;;;;8.75;1.85;;;7.90;99.90;;;;;;5032201;28;20025;-81
2024/01/25 07:24:01;;;;;;;4.03;1.48;;;7.90;99.90;;;;;;5012358;28;20117;-81
2024/01/25 07:26:26;;;;;;;4.90;1.80;;;7.90;99.90;;;;;;5012669;28;20036;-79
2024/01/25 07:28:57;;;;;;;6.32;2.03;;;7.90;99.90;;;;;;5012894;28;20718;-79
2024/01/25 07:31:26;;;;;;;8.90;1.38;;;7.90;99.90;;;;;;5014675;28;20021;-81
2024/01/25 07:33:52;;;;;;;8.07;2.00;;;7.90;99.90;;;;;;5013551;28;20022;-79
2024/01/25 07:36:18;;;;;;;7.85;1.98;;;7.90;99.90;;;;;;5031571;28;20044;-79
2024/01/25 07:38:46;;;;;;;15.00;2.05;;;7.90;99.90;;;;;;5031283;28;20025;-79
2024/01/25 07:41:12;;;;;;;9.25;1.83;;;7.90;99.90;;;;;;5009605;28;20029;-80
2024/01/25 07:43:38;;;;;;;5.68;1.80;;;8.00;99.90;;;;;;5012678;28;20502;-79
2024/01/25 07:46:03;;;;;;;13.05;2.08;;;7.90;99.90;;;;;;5030854;28;20486;-79
2024/01/25 07:48:30;;;;;;;5.03;1.73;;;8.00;99.90;;;;;;5014810;28;20132;-79
2024/01/25 07:50:56;;;;;;;14.02;2.28;;;8.00;99.90;;;;;;5013163;28;20104;-79
2024/01/25 07:53:21;;;;;;;8.00;1.90;;;8.00;99.90;;;;;;5010874;28;20045;-80
2024/01/25 07:55:47;;;;;;;14.70;2.42;;;8.00;99.90;;;;;;5012170;28;20091;-79
2024/01/25 07:58:15;;;;;;;9.45;1.83;;;8.00;99.90;;;;;;5029988;28;20475;-80
2024/01/25 08:00:40;;;;;;;9.73;1.83;;;8.00;99.90;;;;;;5026003;28;20109;-80
2024/01/25 08:03:06;;;;;;;10.77;2.10;;;8.00;99.90;;;;;;5012254;28;20105;-79
2024/01/25 08:05:31;;;;;;;8.70;1.40;;;8.10;99.90;;;;;;5012158;28;20021;-79
2024/01/25 08:07:57;;;;;;;7.70;2.00;;;8.10;99.90;;;;;;5031562;28;20067;-78
2024/01/25 08:10:22;;;;;;;11.65;2.10;;;8.10;99.90;;;;;;5012823;28;20064;-80
2024/01/25 08:12:48;;;;;;;9.68;1.80;;;8.10;99.90;;;;;;5033293;28;20021;-79
2024/01/25 08:15:14;;;;;;;5.95;1.60;;;8.10;99.90;;;;;;5012354;28;20025;-79
2024/01/25 08:17:39;;;;;;;9.43;2.17;;;8.20;99.90;;;;;;5031051;28;20018;-80
2024/01/25 08:20:06;;;;;;;6.68;2.33;;;8.20;99.90;;;;;;5011925;28;20044;-79
2024/01/25 08:22:32;;;;;;;5.00;1.85;;;8.20;99.90;;;;;;5011631;28;20096;-79
2024/01/25 08:24:58;;;;;;;8.30;1.92;;;8.30;99.90;;;;;;5030119;28;20021;-79
2024/01/25 08:27:24;;;;;;;15.88;2.55;;;8.30;99.90;;;;;;5014258;28;20021;-79
2024/01/25 08:29:50;;;;;;;7.43;1.77;;;8.30;99.90;;;;;;5012056;28;20442;-79
2024/01/25 08:32:16;;;;;;;4.75;1.48;;;8.30;99.90;;;;;;5011951;28;20025;-79
2024/01/25 08:34:41;;;;;;;9.95;1.55;;;8.40;99.90;;;;;;5029739;28;20108;-79
2024/01/25 08:37:07;;;;;;;6.57;1.52;;;8.40;99.90;;;;;;5029513;28;20476;-79
2024/01/25 08:39:33;;;;;;;6.75;2.75;;;8.50;99.90;;;;;;5017175;28;21317;-80
2024/01/25 08:42:01;;;;;;;9.35;1.83;;;8.60;99.90;;;;;;5030200;28;20040;-79
2024/01/25 08:44:27;;;;;;;7.07;2.08;;;8.70;99.90;;;;;;5008790;28;20046;-79
2024/01/25 08:46:53;;;;;;;11.52;1.55;;;8.80;99.90;;;;;;5011179;28;20080;-79
2024/01/25 08:49:18;;;;;;;11.05;2.10;;;8.90;99.90;;;;;;5009380;28;20056;-83
2024/01/25 08:51:44;;;;;;;3.03;1.30;;;9.00;99.90;;;;;;5010848;28;20469;-83
2024/01/25 08:54:09;;;;;;;9.43;2.00;;;9.10;99.90;;;;;;5012114;28;20029;-82
2024/01/25 08:56:35;;;;;;;9.93;2.08;;;9.10;99.90;;;;;;5011547;28;20063;-82
2024/01/25 08:59:00;;;;;;;11.20;1.88;;;9.20;99.90;;;;;;5029319;28;20061;-82
2024/01/25 09:01:26;;;;;;;7.60;1.70;;;9.20;99.90;;;;;;5030156;28;20052;-81
2024/01/25 09:03:52;;;;;;;7.65;2.33;;;9.30;99.90;;;;;;5018784;28;20025;-82
2024/01/25 09:06:17;;;;;;;8.80;1.80;;;9.40;99.90;;;;;;5015277;28;20021;-82
2024/01/25 09:08:43;;;;;;;8.32;2.50;;;9.40;99.90;;;;;;5033083;28;20018;-82
2024/01/25 09:11:09;;;;;;;6.45;1.80;;;9.50;99.90;;;;;;5016829;28;20106;-82
2024/01/25 09:13:34;;;;;;;6.38;1.77;;;9.60;99.90;;;;;;5015120;28;20033;-82
2024/01/25 09:16:00;;;;;;;11.20;2.05;;;9.60;99.90;;;;;;5015219;28;20068;-82
2024/01/25 09:18:25;;;;;;;10.57;1.83;;;9.70;99.90;;;;;;5033602;28;20049;-81
2024/01/25 09:20:51;;;;;;;3.42;1.23;;;9.70;99.90;;;;;;5015199;28;20041;-82
2024/01/25 09:23:17;;;;;;;6.82;1.58;;;9.70;99.90;;;;;;5034234;28;20049;-82
2024/01/25 09:25:43;;;;;;;8.05;2.05;;;9.80;99.90;;;;;;5032500;28;20017;-82
2024/01/25 09:28:11;;;;;;;8.98;2.30;;;9.80;99.90;;;;;;5032076;28;20014;-82
2024/01/25 09:30:40;;;;;;;10.90;2.35;;;9.90;99.90;;;;;;5030934;28;20022;-82
2024/01/25 09:33:06;;;;;;;11.07;1.95;;;9.90;99.90;;;;;;5014962;28;20041;-82
2024/01/25 09:35:32;;;;;;;12.70;1.73;;;10.00;99.90;;;;;;5033293;28;20518;-82
2024/01/25 09:37:58;;;;;;;7.25;1.92;;;10.00;99.90;;;;;;5032667;28;20045;-81
2024/01/25 09:40:23;;;;;;;8.35;2.22;;;10.10;99.90;;;;;;5031542;28;20030;-81
2024/01/25 09:42:49;;;;;;;13.30;2.03;;;10.10;99.90;;;;;;5012524;28;20029;-82
2024/01/25 09:45:17;;;;;;;9.13;2.28;;;10.20;99.90;;;;;;5027276;28;20494;-81
2024/01/25 09:47:44;;;;;;;9.93;1.70;;;10.20;99.90;;;;;;5014890;28;20090;-81
2024/01/25 09:50:10;;;;;;;5.72;1.67;;;10.20;99.90;;;;;;5031084;28;20017;-82
2024/01/25 09:52:35;;;;;;;10.57;1.55;;;10.30;99.90;;;;;;5031480;28;20056;-83
2024/01/25 09:55:01;;;;;;;7.18;1.60;;;10.40;99.90;;;;;;5030023;28;20084;-82
2024/01/25 09:57:30;;;;;;;10.50;1.60;;;10.40;99.90;;;;;;5035228;28;20029;-81
2024/01/25 09:59:55;;;;;;;5.97;1.80;;;10.40;99.90;;;;;;5031127;28;20054;-82
2024/01/25 10:02:21;;;;;;;9.73;1.65;;;10.40;99.90;;;;;;5033669;28;20048;-81
2024/01/25 10:04:53;;;;;;;10.65;1.63;;;10.40;99.90;;;;;;5017493;28;20021;-82
2024/01/25 10:07:44;;;;;;;12.35;2.28;;;10.40;99.90;;;;;;5034713;28;20748;-82
2024/01/25 10:10:11;;;;;;;11.05;2.25;;;10.30;99.90;;;;;;5033132;28;20036;-82
2024/01/25 10:12:42;;;;;;;9.43;1.65;;;10.40;99.90;;;;;;5034970;28;20029;-81
2024/01/25 10:15:08;;;;;;;9.38;1.75;;;10.40;99.90;;;;;;5012504;28;20025;-82
2024/01/25 10:17:33;;;;;;;12.25;1.95;;;10.40;99.90;;;;;;5020466;28;20025;-82
2024/01/25 10:19:59;;;;;;;9.18;3.00;;;10.40;99.90;;;;;;5020364;28;20017;-81
2024/01/25 10:22:25;;;;;;;10.80;2.10;;;10.50;99.90;;;;;;5018640;28;20029;-82
2024/01/25 10:24:53;;;;;;;13.10;2.20;;;10.50;99.90;;;;;;5017581;28;20464;-82
2024/01/25 10:27:18;;;;;;;10.98;2.53;;;10.50;99.90;;;;;;5033527;28;20083;-82
2024/01/25 10:29:44;;;;;;;15.60;2.40;;;10.60;99.90;;;;;;5033277;28;20026;-83
2024/01/25 10:32:09;;;;;;;6.18;1.50;;;10.60;99.90;;;;;;5014606;28;20151;-81
2024/01/25 10:34:36;;;;;;;16.15;2.38;;;10.60;99.90;;;;;;5032277;28;20079;-81
2024/01/25 10:37:06;;;;;;;14.40;1.90;;;10.50;99.90;;;;;;5030606;28;20089;-83
2024/01/25 10:39:32;;;;;;;7.80;2.10;;;10.50;99.90;;;;;;5029058;28;20089;-83
2024/01/25 10:41:59;;;;;;;9.60;2.15;;;10.40;99.90;;;;;;5013743;28;20586;-82
2024/01/25 10:44:24;;;;;;;11.70;2.08;;;10.30;99.90;;;;;;5028184;28;20025;-82
2024/01/25 10:46:50;;;;;;;11.65;1.63;;;10.10;99.90;;;;;;5031452;28;20021;-83
2024/01/25 10:49:17;;;;;;;7.65;2.13;;;10.00;99.90;;;;;;5031127;28;20395;-83
2024/01/25 10:51:44;;;;;;;4.47;1.40;;;9.90;99.90;;;;;;5014642;28;20489;-83
2024/01/25 10:54:11;;;;;;;3.60;1.30;;;9.80;99.90;;;;;;5028039;28;20105;-83
2024/01/25 10:56:40;;;;;;;12.80;2.08;;;9.70;99.90;;;;;;5027734;28;20026;-82
2024/01/25 10:59:06;;;;;;;6.15;1.92;;;9.70;99.90;;;;;;5031283;28;20021;-81
2024/01/25 11:01:33;;;;;;;9.25;2.15;;;9.60;99.90;;;;;;5010698;28;20072;-81
2024/01/25 11:03:59;;;;;;;6.88;1.58;;;9.60;99.90;;;;;;5028598;28;20021;-82
2024/01/25 11:06:27;;;;;;;4.90;2.05;;;9.50;99.90;;;;;;5015227;28;20025;-82
2024/01/25 11:09:05;;;;;;;5.82;1.90;;;9.50;99.90;;;;;;5008742;28;20022;-82
2024/01/25 11:11:31;;;;;;;5.88;1.90;;;9.50;99.90;;;;;;5013466;28;20040;-81
2024/01/25 11:13:58;;;;;;;9.15;2.03;;;9.40;99.90;;;;;;5030923;28;20487;-82
2024/01/25 11:16:31;;;;;;;8.60;1.98;;;9.40;99.90;;;;;;5009446;28;20125;-82
2024/01/25 11:19:04;;;;;;;6.03;1.38;;;9.50;99.90;;;;;;5010465;28;20052;-83
2024/01/25 11:21:43;;;;;;;13.90;1.55;;;9.50;99.90;;;;;;5011382;28;20087;-82
2024/01/25 11:24:23;;;;;;;9.80;1.67;;;9.40;99.90;;;;;;5012399;28;20071;-82
2024/01/25 11:26:49;;;;;;;19.15;2.05;;;9.50;99.90;;;;;;5011779;28;20030;-82
2024/01/25 11:29:16;;;;;;;11.18;2.15;;;9.50;99.90;;;;;;5030367;28;20109;-81
2024/01/25 11:31:43;;;;;;;15.63;1.98;;;9.50;99.90;;;;;;5031866;28;20026;-82
2024/01/25 11:34:10;;;;;;;12.88;2.00;;;9.50;99.90;;;;;;5028174;28;20029;-82
2024/01/25 11:36:36;;;;;;;5.43;1.52;;;9.50;99.90;;;;;;5029221;28;20026;-81
2024/01/25 11:39:02;;;;;;;7.10;1.38;;;9.60;99.90;;;;;;5011654;28;20024;-82
2024/01/25 11:41:28;;;;;;;5.57;2.05;;;9.60;99.90;;;;;;5011973;28;20065;-81
2024/01/25 11:43:53;;;;;;;14.15;1.88;;;9.70;99.90;;;;;;5029093;28;20060;-82
2024/01/25 11:46:19;;;;;;;4.55;1.65;;;9.80;99.90;;;;;;5003135;28;20080;-82
2024/01/25 11:48:45;;;;;;;8.75;1.60;;;9.80;99.90;;;;;;5012475;28;20079;-81
2024/01/25 11:51:11;;;;;;;9.57;1.77;;;9.90;99.90;;;;;;5014740;28;20028;-82
2024/01/25 11:53:37;;;;;;;6.82;1.42;;;10.20;99.90;;;;;;5012508;28;20783;-81
2024/01/25 11:56:06;;;;;;;8.85;1.40;;;10.40;99.90;;;;;;5012199;28;20116;-81
2024/01/25 11:58:31;;;;;;;12.45;2.13;;;10.40;99.90;;;;;;5012796;28;20033;-83
2024/01/25 12:00:57;;;;;;;8.00;1.70;;;10.40;99.90;;;;;;5026136;28;20389;-82
2024/01/25 12:03:23;;;;;;;9.63;2.13;;;10.50;99.90;;;;;;5031559;28;20420;-82
2024/01/25 12:05:50;;;;;;;14.80;1.90;;;10.50;99.90;;;;;;5031048;28;20037;-82
2024/01/25 12:08:16;;;;;;;13.90;2.60;;;10.60;99.90;;;;;;5011386;28;20025;-82
2024/01/25 12:10:42;;;;;;;11.38;1.45;;;10.50;99.90;;;;;;5011993;28;20053;-82
2024/01/25 12:13:08;;;;;;;8.00;1.98;;;10.50;99.90;;;;;;5026765;28;20463;-82
2024/01/25 12:15:34;;;;;;;13.85;2.15;;;10.50;99.90;;;;;;5031069;28;20490;-82
2024/01/25 12:18:01;;;;;;;11.48;1.33;;;10.40;99.90;;;;;;5010795;28;20034;-83
2024/01/25 12:20:28;;;;;;;10.95;2.15;;;10.40;99.90;;;;;;5031489;28;20543;-81
2024/01/25 12:22:53;;;;;;;4.28;1.60;;;10.30;99.90;;;;;;5011143;28;20088;-82
2024/01/25 12:25:19;;;;;;;14.00;2.17;;;10.20;99.90;;;;;;5027760;28;20060;-81
2024/01/25 12:27:48;;;;;;;4.43;1.30;;;10.10;99.90;;;;;;5028088;28;20074;-81
2024/01/25 12:30:14;;;;;;;11.18;2.20;;;10.10;99.90;;;;;;5027364;28;20017;-81
2024/01/25 12:32:40;;;;;;;5.40;1.33;;;10.10;99.90;;;;;;5011280;28;20030;-83
2024/01/25 12:35:07;;;;;;;7.57;1.98;;;10.00;99.90;;;;;;5027374;28;20040;-82
2024/01/25 12:37:33;;;;;;;9.38;1.92;;;10.00;99.90;;;;;;5014443;28;20032;-82
2024/01/25 12:39:59;;;;;;;18.10;2.20;;;9.90;99.90;;;;;;5015912;28;20378;-82
2024/01/25 12:42:24;;;;;;;6.15;1.17;;;9.90;99.90;;;;;;5014958;28;20030;-81
2024/01/25 12:44:53;;;;;;;5.70;1.15;;;9.90;99.90;;;;;;5036391;28;20454;-81
2024/01/25 12:47:19;;;;;;;9.32;2.22;;;9.90;99.90;;;;;;5013804;28;20594;-82